Time;durP1;ratioP1;P1;durP2;ratioP2;P2;SDS_P1;SDS_P2;PMS_P1;PMS_P2;Temp;Humidity;BMP_temperature;BMP_pressure;BME280_temperature;BME280_humidity;BME280_pressure;Samples;Min_cycle;Max_cycle;Signal;HPM_P1;HPM_P2
2023/02/24 00:02:05;;;;;;;;;;;;;;;26.12;37.54;93683.75;5031654;28;7209;-55
2023/02/24 00:04:37;;;;;;;;;;;;;;;26.15;37.58;93680.69;5048775;28;7412;-55
2023/02/24 00:07:06;;;;;;;;;;;;;;;26.15;37.38;93674.41;5028733;28;7158;-55
2023/02/24 00:09:45;;;;;;;;;;;;;;;26.14;37.73;93681.22;5031845;28;6982;-55
2023/02/24 00:12:15;;;;;;;;;;;;;;;26.14;37.30;93673.66;5021870;28;9186;-55
2023/02/24 00:15:14;;;;;;;;;;;;;;;26.15;37.59;93677.91;5006508;28;7374;-55
2023/02/24 00:18:05;;;;;;;;;;;;;;;26.16;37.58;93676.63;4939956;28;7056;-55
2023/02/24 00:20:40;;;;;;;;;;;;;;;26.17;37.78;93675.38;4949720;28;8941;-55
2023/02/24 00:23:22;;;;;;;;;;;;;;;26.16;37.36;93664.88;4940157;28;9080;-55
2023/02/24 00:26:05;;;;;;;;;;;;;;;26.17;38.09;93661.59;4937239;29;9416;-55
2023/02/24 00:28:43;;;;;;;;;;;;;;;26.14;37.97;93650.91;4950392;28;7262;-55
2023/02/24 00:31:17;;;;;;;;;;;;;;;26.18;38.17;93656.81;4955779;28;9060;-55
2023/02/24 00:34:34;;;;;;;;;;;;;;;26.19;37.78;93649.31;4931294;28;7391;-55
2023/02/24 00:37:22;;;;;;;;;;;;;;;26.12;37.35;93656.91;4955621;28;8725;-56
2023/02/24 00:39:56;;;;;;;;;;;;;;;26.15;37.48;93652.38;4962909;28;8146;-55
2023/02/24 00:42:48;;;;;;;;;;;;;;;26.15;37.97;93658.63;4956112;28;9226;-55
2023/02/24 00:45:40;;;;;;;;;;;;;;;26.17;37.50;93650.56;4950925;28;9027;-55
2023/02/24 00:48:28;;;;;;;;;;;;;;;26.15;37.33;93658.63;4971503;28;6985;-56
2023/02/24 00:51:27;;;;;;;;;;;;;;;26.15;37.18;93655.13;4940637;28;7064;-55
2023/02/24 00:54:04;;;;;;;;;;;;;;;26.12;37.74;93648.66;4940569;28;9341;-55
2023/02/24 00:56:49;;;;;;;;;;;;;;;26.15;37.22;93653.09;4957385;28;7199;-55
2023/02/24 00:59:35;;;;;;;;;;;;;;;26.13;37.66;93647.38;4981529;28;7045;-55
2023/02/24 01:02:05;;;;;;;;;;;;;;;26.16;37.99;93646.31;4967673;28;9134;-55
2023/02/24 01:05:04;;;;;;;;;;;;;;;26.15;37.98;93647.59;4981097;28;7223;-55
2023/02/24 01:07:40;;;;;;;;;;;;;;;26.13;37.58;93647.38;4865586;29;8740;-55
2023/02/24 01:10:27;;;;;;;;;;;;;;;26.13;38.01;93644.63;4912614;29;7562;-54
2023/02/24 01:13:37;;;;;;;;;;;;;;;26.14;37.98;93648.84;4914111;29;7283;-55
2023/02/24 01:16:25;;;;;;;;;;;;;;;26.14;37.99;93637.13;4879670;29;7455;-55
2023/02/24 01:19:11;;;;;;;;;;;;;;;26.15;37.77;93636.56;4902820;29;9074;-55
2023/02/24 01:22:08;;;;;;;;;;;;;;;26.16;37.43;93640.06;4915804;29;7254;-55
2023/02/24 01:24:51;;;;;;;;;;;;;;;26.16;37.54;93635.28;4897851;29;9361;-55
2023/02/24 01:27:18;;;;;;;;;;;;;;;26.15;37.72;93633.81;4885090;29;9116;-55
2023/02/24 01:30:04;;;;;;;;;;;;;;;26.17;37.89;93639.53;4919846;29;7193;-55
2023/02/24 01:32:42;;;;;;;;;;;;;;;26.15;37.29;93633.06;4929186;28;7141;-55
2023/02/24 01:35:47;;;;;;;;;;;;;;;26.14;37.33;93629.56;4932525;29;9013;-57
2023/02/24 01:38:24;;;;;;;;;;;;;;;26.12;37.63;93626.59;4910739;28;7225;-57
2023/02/24 01:41:26;;;;;;;;;;;;;;;26.11;37.21;93622.38;4927480;28;7285;-57
2023/02/24 01:44:24;;;;;;;;;;;;;;;26.11;36.89;93625.13;4881772;29;9031;-57
2023/02/24 01:47:21;;;;;;;;;;;;;;;26.11;37.84;93621.63;4913697;29;9032;-57
2023/02/24 01:49:53;;;;;;;;;;;;;;;26.09;37.75;93624.19;4872203;29;7584;-57
2023/02/24 01:52:45;;;;;;;;;;;;;;;26.11;37.09;93618.88;4907120;29;7043;-57
2023/02/24 01:55:48;;;;;;;;;;;;;;;26.12;37.88;93623.84;4951243;28;9028;-57
2023/02/24 01:58:52;;;;;;;;;;;;;;;26.10;37.16;93620.88;4929824;29;7026;-58
2023/02/24 02:01:18;;;;;;;;;;;;;;;26.06;37.82;93614.94;4916294;29;7511;-57
2023/02/24 02:04:19;;;;;;;;;;;;;;;26.09;37.85;93619.41;4944701;28;7465;-57
2023/02/24 02:06:56;;;;;;;;;;;;;;;26.08;37.26;93606.13;4928941;29;7250;-57
2023/02/24 02:09:23;;;;;;;;;;;;;;;26.09;37.85;93613.91;4935174;29;7351;-57
2023/02/24 02:12:23;;;;;;;;;;;;;;;26.09;37.92;93611.16;4926342;29;9377;-58
2023/02/24 02:14:58;;;;;;;;;;;;;;;26.09;37.75;93613.16;4934959;29;7048;-58
2023/02/24 02:18:17;;;;;;;;;;;;;;;26.08;37.12;93604.13;4972931;28;9133;-57
2023/02/24 02:21:21;;;;;;;;;;;;;;;26.08;37.15;93601.38;5013835;28;7993;-58
2023/02/24 02:24:34;;;;;;;;;;;;;;;26.08;37.88;93604.13;5029826;28;9163;-57
2023/02/24 02:27:23;;;;;;;;;;;;;;;26.07;37.69;93605.41;5029655;28;7040;-57
2023/02/24 02:30:12;;;;;;;;;;;;;;;26.05;37.15;93599.69;5014231;28;7856;-58
2023/02/24 02:33:20;;;;;;;;;;;;;;;26.04;37.28;93611.97;5013761;28;9723;-57
2023/02/24 02:36:12;;;;;;;;;;;;;;;26.05;37.75;93609.97;5007132;28;7537;-57
2023/02/24 02:39:11;;;;;;;;;;;;;;;26.05;37.34;93609.97;4969595;28;7048;-57
2023/02/24 02:44:55;;;;;;;;;;;;;;;26.02;37.46;93611.75;4953476;28;8731;-57
2023/02/24 02:47:26;;;;;;;;;;;;;;;26.02;37.35;93608.25;4941612;28;7032;-58
2023/02/24 02:50:22;;;;;;;;;;;;;;;26.02;37.73;93609.00;4950247;28;7223;-57
2023/02/24 02:53:13;;;;;;;;;;;;;;;26.02;37.16;93606.25;4966834;28;7082;-58
2023/02/24 02:58:59;;;;;;;;;;;;;;;26.00;37.64;93595.03;4954562;28;8949;-57
2023/02/24 03:01:42;;;;;;;;;;;;;;;26.00;37.21;93592.25;4969330;28;9430;-57
2023/02/24 03:04:25;;;;;;;;;;;;;;;26.01;38.13;93596.50;4946865;28;7046;-57
2023/02/24 03:06:58;;;;;;;;;;;;;;;26.01;36.97;93593.72;4949147;28;7201;-57
2023/02/24 03:09:29;;;;;;;;;;;;;;;25.98;38.10;93600.31;4965699;28;8884;-57
2023/02/24 03:12:06;;;;;;;;;;;;;;;25.98;36.97;93599.56;4940230;28;7383;-57
2023/02/24 03:14:43;;;;;;;;;;;;;;;25.96;37.92;93600.13;4970453;28;9209;-57
2023/02/24 03:17:20;;;;;;;;;;;;;;;25.95;37.31;93603.38;5036178;28;8803;-57
2023/02/24 03:20:31;;;;;;;;;;;;;;;25.96;37.58;93594.59;5027168;28;7267;-58
2023/02/24 03:23:15;;;;;;;;;;;;;;;25.96;37.73;93596.63;5022246;28;9086;-57
2023/02/24 03:25:52;;;;;;;;;;;;;;;25.94;37.77;93601.91;5019048;28;7487;-57
2023/02/24 03:28:29;;;;;;;;;;;;;;;25.92;37.81;93599.69;5046651;28;9309;-57
2023/02/24 03:31:29;;;;;;;;;;;;;;;25.94;37.41;93604.66;5007093;28;9281;-57
2023/02/24 03:34:04;;;;;;;;;;;;;;;25.91;37.93;93598.22;5023681;28;9039;-57
2023/02/24 03:36:32;;;;;;;;;;;;;;;25.91;37.65;93598.22;5015873;28;7312;-57
2023/02/24 03:39:00;;;;;;;;;;;;;;;25.91;37.30;93598.22;5028522;28;7053;-58
2023/02/24 03:41:54;;;;;;;;;;;;;;;25.90;37.73;93587.72;5046103;28;9547;-57
2023/02/24 03:44:23;;;;;;;;;;;;;;;25.90;37.61;93591.19;5022404;28;9431;-57
2023/02/24 03:47:27;;;;;;;;;;;;;;;25.90;37.25;93585.69;5017676;28;8999;-58
2023/02/24 03:49:54;;;;;;;;;;;;;;;25.90;36.75;93588.44;5025606;28;7278;-57
2023/02/24 03:53:00;;;;;;;;;;;;;;;25.90;37.08;93596.00;5048769;28;7220;-57
2023/02/24 03:55:57;;;;;;;;;;;;;;;25.89;37.42;93598.00;5017135;28;8951;-57
2023/02/24 03:58:46;;;;;;;;;;;;;;;25.87;37.48;93597.03;5009414;28;7341;-57
2023/02/24 04:01:29;;;;;;;;;;;;;;;25.86;38.07;93590.06;5016781;28;7474;-57
2023/02/24 04:04:17;;;;;;;;;;;;;;;25.85;37.68;93594.81;5032197;28;7466;-57
2023/02/24 04:06:58;;;;;;;;;;;;;;;25.82;37.85;93584.88;5048498;28;7060;-57
2023/02/24 04:10:14;;;;;;;;;;;;;;;25.84;37.51;93592.59;5032294;28;7040;-57
2023/02/24 04:16:35;;;;;;;;;;;;;;;25.82;37.97;93586.88;5006069;28;7230;-57
2023/02/24 04:19:26;;;;;;;;;;;;;;;25.83;37.21;93589.09;4994918;28;7293;-58
2023/02/24 04:21:56;;;;;;;;;;;;;;;25.81;37.17;93577.88;4987865;28;9123;-59
2023/02/24 04:24:39;;;;;;;;;;;;;;;25.83;37.92;93583.59;4979373;28;7137;-65
2023/02/24 04:27:11;;;;;;;;;;;;;;;25.82;37.45;93584.13;4991899;28;7267;-65
2023/02/24 04:29:50;;;;;;;;;;;;;;;25.82;37.46;93578.59;5025143;28;7144;-65
2023/02/24 04:32:22;;;;;;;;;;;;;;;25.80;38.03;93570.88;4995120;28;7086;-65
2023/02/24 04:34:48;;;;;;;;;;;;;;;25.79;38.18;93563.91;4990562;28;8874;-65
2023/02/24 04:37:16;;;;;;;;;;;;;;;25.79;37.61;93558.41;4990271;28;9158;-66
2023/02/24 04:39:43;;;;;;;;;;;;;;;25.77;38.03;93560.94;4975179;28;7116;-65
2023/02/24 04:42:10;;;;;;;;;;;;;;;25.77;37.56;93551.94;4998912;28;7308;-65
2023/02/24 04:44:41;;;;;;;;;;;;;;;25.75;37.24;93546.22;4994064;28;7334;-65
2023/02/24 04:47:12;;;;;;;;;;;;;;;25.76;37.97;93548.44;5003376;28;9111;-65
2023/02/24 04:49:43;;;;;;;;;;;;;;;25.76;38.13;93548.44;4993492;28;7965;-65
2023/02/24 04:52:10;;;;;;;;;;;;;;;25.77;37.57;93538.16;5027374;28;7619;-65
2023/02/24 04:54:36;;;;;;;;;;;;;;;25.77;37.57;93541.66;5012527;28;7051;-65
2023/02/24 04:57:09;;;;;;;;;;;;;;;25.77;37.20;93533.41;5028261;28;9068;-65
2023/02/24 04:59:36;;;;;;;;;;;;;;;25.70;37.97;93531.28;5027707;28;7220;-65
2023/02/24 05:02:07;;;;;;;;;;;;;;;25.75;37.50;93530.41;5012021;28;7047;-65
2023/02/24 05:04:37;;;;;;;;;;;;;;;25.75;37.96;93533.16;5043925;28;8980;-64
2023/02/24 05:07:46;;;;;;;;;;;;;;;25.76;37.17;93531.91;5014443;28;7265;-64
2023/02/24 05:10:17;;;;;;;;;;;;;;;25.73;37.17;93530.19;5029976;28;7260;-64
2023/02/24 05:13:02;;;;;;;;;;;;;;;25.73;37.52;93521.22;5015413;28;7902;-64
2023/02/24 05:15:31;;;;;;;;;;;;;;;25.72;37.36;93525.97;5022642;28;7036;-65
2023/02/24 05:18:08;;;;;;;;;;;;;;;25.70;37.27;93520.28;5021057;28;8866;-65
2023/02/24 05:23:58;;;;;;;;;;;;;;;25.67;37.56;93521.31;5015355;28;8932;-64
2023/02/24 05:26:58;;;;;;;;;;;;;;;25.70;37.97;93525.78;5021548;28;7407;-65
2023/02/24 05:29:33;;;;;;;;;;;;;;;25.70;38.27;93527.78;4968347;28;7484;-65
2023/02/24 05:32:00;;;;;;;;;;;;;;;25.67;37.84;93524.06;4927737;29;7056;-65
2023/02/24 05:34:29;;;;;;;;;;;;;;;25.68;37.39;93522.81;4965928;28;9034;-65
2023/02/24 05:37:00;;;;;;;;;;;;;;;25.69;37.37;93526.28;4936764;28;9320;-64
2023/02/24 05:39:28;;;;;;;;;;;;;;;25.69;37.90;93526.28;4950262;28;7245;-65
2023/02/24 05:41:55;;;;;;;;;;;;;;;25.67;37.26;93518.56;4951901;28;7317;-65
2023/02/24 05:44:24;;;;;;;;;;;;;;;25.67;37.93;93518.56;4951809;28;7261;-64
2023/02/24 05:46:57;;;;;;;;;;;;;;;25.67;37.56;93515.81;4951652;28;7279;-65
2023/02/24 05:49:31;;;;;;;;;;;;;;;25.67;37.94;93518.56;4927302;29;7041;-64
2023/02/24 05:52:06;;;;;;;;;;;;;;;25.69;37.56;93512.50;4933201;28;9269;-64
2023/02/24 05:54:41;;;;;;;;;;;;;;;25.67;37.67;93507.56;4951638;28;8994;-65
2023/02/24 05:57:23;;;;;;;;;;;;;;;25.65;37.81;93509.34;4967680;28;8491;-64
2023/02/24 06:00:07;;;;;;;;;;;;;;;25.64;38.07;93505.88;4970093;28;8204;-65
2023/02/24 06:02:48;;;;;;;;;;;;;;;25.66;37.31;93506.09;4954086;28;8677;-65
2023/02/24 06:05:26;;;;;;;;;;;;;;;25.64;38.18;93499.63;4946189;28;7489;-65
2023/02/24 06:08:10;;;;;;;;;;;;;;;25.64;37.87;93500.38;5046861;28;7158;-66
2023/02/24 06:10:41;;;;;;;;;;;;;;;25.61;37.84;93497.91;5014522;28;7359;-65
2023/02/24 06:13:11;;;;;;;;;;;;;;;25.62;38.07;93500.13;5013410;28;7652;-65
2023/02/24 06:15:40;;;;;;;;;;;;;;;25.62;37.62;93500.13;5005988;28;7271;-65
2023/02/24 06:18:10;;;;;;;;;;;;;;;25.61;37.96;93484.91;5026262;28;9100;-65
2023/02/24 06:20:36;;;;;;;;;;;;;;;25.62;37.37;93488.41;5027214;28;7035;-65
2023/02/24 06:23:04;;;;;;;;;;;;;;;25.57;37.39;93475.47;5006645;28;7256;-65
2023/02/24 06:25:32;;;;;;;;;;;;;;;25.61;37.68;93493.16;5009357;28;7038;-65
2023/02/24 06:28:00;;;;;;;;;;;;;;;25.60;37.11;93486.16;5024292;28;7029;-65
2023/02/24 06:30:26;;;;;;;;;;;;;;;25.56;37.64;93474.00;5000204;28;9072;-65
2023/02/24 06:32:55;;;;;;;;;;;;;;;25.60;38.29;93483.41;5024084;28;7159;-65
2023/02/24 06:35:24;;;;;;;;;;;;;;;25.52;37.81;93485.34;5033043;28;7227;-65
2023/02/24 06:37:54;;;;;;;;;;;;;;;25.48;38.40;93479.41;5002045;28;7222;-66
2023/02/24 06:40:21;;;;;;;;;;;;;;;25.49;38.42;93489.13;5044199;28;7087;-65
2023/02/24 06:42:59;;;;;;;;;;;;;;;25.49;37.79;93493.94;5027605;28;9029;-65
2023/02/24 06:45:27;;;;;;;;;;;;;;;25.47;37.84;93488.94;5027262;28;7490;-65
2023/02/24 06:47:58;;;;;;;;;;;;;;;25.48;38.37;93495.94;5025695;28;9003;-65
2023/02/24 06:50:24;;;;;;;;;;;;;;;25.46;37.52;93492.97;5022901;28;7204;-65
2023/02/24 06:52:59;;;;;;;;;;;;;;;25.48;38.45;93498.69;5022169;28;9483;-64
2023/02/24 06:55:29;;;;;;;;;;;;;;;25.46;38.11;93498.47;5012380;28;9000;-65
2023/02/24 06:57:58;;;;;;;;;;;;;;;25.46;37.52;93490.22;5027598;28;7247;-64
2023/02/24 07:00:37;;;;;;;;;;;;;;;25.45;38.21;93490.75;5008415;28;6995;-65
2023/02/24 07:03:16;;;;;;;;;;;;;;;25.44;38.72;93490.00;5027428;28;7021;-64
2023/02/24 07:05:52;;;;;;;;;;;;;;;25.43;37.41;93486.50;5027876;28;9038;-65
2023/02/24 07:08:26;;;;;;;;;;;;;;;25.43;38.24;93483.00;5026977;28;7305;-64
2023/02/24 07:10:56;;;;;;;;;;;;;;;25.43;37.57;93488.53;5023809;28;7705;-64
2023/02/24 07:13:33;;;;;;;;;;;;;;;25.42;37.54;93482.25;5008269;28;9253;-64
2023/02/24 07:16:05;;;;;;;;;;;;;;;25.43;37.73;93483.75;5028735;28;9329;-64
2023/02/24 07:18:55;;;;;;;;;;;;;;;25.42;38.24;93478.78;5022275;28;7118;-65
2023/02/24 07:21:51;;;;;;;;;;;;;;;25.43;37.55;93478.25;5012475;28;7651;-65
2023/02/24 07:24:34;;;;;;;;;;;;;;;25.43;37.71;93483.00;5045486;28;7246;-65
2023/02/24 07:27:26;;;;;;;;;;;;;;;25.42;37.88;93478.78;5013750;28;7290;-65
2023/02/24 07:29:58;;;;;;;;;;;;;;;25.41;38.09;93469.00;5008373;28;8773;-65
2023/02/24 07:32:25;;;;;;;;;;;;;;;25.42;37.53;93465.75;5028860;28;7268;-65
2023/02/24 07:34:51;;;;;;;;;;;;;;;25.44;38.39;93462.47;5028965;28;9067;-64
2023/02/24 07:37:47;;;;;;;;;;;;;;;25.46;38.06;93459.19;5045540;28;7543;-65
2023/02/24 07:40:39;;;;;;;;;;;;;;;25.44;37.35;93443.22;5013609;28;7288;-65
2023/02/24 07:43:17;;;;;;;;;;;;;;;25.45;38.05;93452.22;5016886;28;7952;-65
2023/02/24 07:46:18;;;;;;;;;;;;;;;25.45;38.13;93450.19;5020438;28;7445;-65
2023/02/24 07:48:47;;;;;;;;;;;;;;;25.45;38.37;93443.97;4975856;28;9138;-64
2023/02/24 07:51:19;;;;;;;;;;;;;;;25.44;38.30;93432.19;5003410;28;7514;-64
2023/02/24 07:53:51;;;;;;;;;;;;;;;25.46;37.40;93429.66;5003425;28;7637;-65
2023/02/24 07:56:25;;;;;;;;;;;;;;;25.46;38.29;93424.16;4969744;28;7647;-64
2023/02/24 07:59:14;;;;;;;;;;;;;;;25.47;38.35;93422.84;4987427;28;7209;-65
2023/02/24 08:01:57;;;;;;;;;;;;;;;25.43;37.60;93419.69;4970494;28;7029;-65
2023/02/24 08:04:28;;;;;;;;;;;;;;;25.48;37.33;93413.34;4962151;28;9500;-65
2023/02/24 08:07:23;;;;;;;;;;;;;;;25.47;38.33;93405.63;4972433;28;7097;-65
2023/02/24 08:10:12;;;;;;;;;;;;;;;25.48;38.21;93412.59;4965499;28;9372;-65
2023/02/24 08:12:43;;;;;;;;;;;;;;;25.45;37.50;93403.38;4997360;28;7024;-65
2023/02/24 08:15:23;;;;;;;;;;;;;;;25.45;38.22;93402.66;4964853;28;7492;-64
2023/02/24 08:17:52;;;;;;;;;;;;;;;25.48;37.35;93409.84;4972588;28;9515;-65
2023/02/24 08:22:52;;;;;;;;;;;;;;;25.49;37.88;93403.06;4975610;28;8820;-65
2023/02/24 08:25:52;;;;;;;;;;;;;;;25.48;38.15;93404.34;4992827;28;9406;-65
2023/02/24 08:32:04;;;;;;;;;;;;;;;25.46;38.16;93407.63;4975926;28;7651;-65
2023/02/24 08:34:39;;;;;;;;;;;;;;;25.46;38.07;93404.88;4991033;28;7040;-66
2023/02/24 08:37:05;;;;;;;;;;;;;;;25.45;37.28;93400.63;4976612;28;7123;-66
2023/02/24 08:39:35;;;;;;;;;;;;;;;25.46;37.98;93388.34;4978132;28;7445;-66
2023/02/24 08:42:14;;;;;;;;;;;;;;;25.47;38.03;93389.09;4988892;28;9210;-65
2023/02/24 08:44:44;;;;;;;;;;;;;;;25.47;38.25;93395.31;4973423;28;7002;-65
2023/02/24 08:47:44;;;;;;;;;;;;;;;25.48;37.46;93391.31;4970742;28;7159;-65
2023/02/24 08:50:32;;;;;;;;;;;;;;;25.47;38.01;93389.81;4969779;28;9725;-65
2023/02/24 08:53:17;;;;;;;;;;;;;;;25.47;38.17;93389.09;4974529;28;8383;-65
2023/02/24 08:56:10;;;;;;;;;;;;;;;25.48;37.23;93396.81;4975707;28;8989;-65
2023/02/24 08:58:46;;;;;;;;;;;;;;;25.51;37.78;93389.50;4968346;28;7650;-65
2023/02/24 09:01:53;;;;;;;;;;;;;;;25.56;37.42;93386.63;4984565;28;7206;-64
2023/02/24 09:04:21;;;;;;;;;;;;;;;25.50;37.73;93379.75;4942623;28;7299;-65
2023/02/24 09:07:20;;;;;;;;;;;;;;;25.50;37.39;93386.00;4936060;29;9007;-65
2023/02/24 09:10:10;;;;;;;;;;;;;;;25.49;37.23;93381.75;4863919;29;7278;-65
2023/02/24 09:12:41;;;;;;;;;;;;;;;25.45;38.12;93380.63;4863705;29;7066;-65
2023/02/24 09:15:19;;;;;;;;;;;;;;;25.46;38.21;93387.63;4863960;29;9049;-65
2023/02/24 09:18:37;;;;;;;;;;;;;;;25.47;38.38;93394.59;4863808;29;9061;-66
2023/02/24 09:22:04;;;;;;;;;;;;;;;25.46;37.83;93388.34;4869507;29;7056;-66
2023/02/24 09:25:39;;;;;;;;;;;;;;;25.45;38.41;93392.38;4807795;29;7870;-66
2023/02/24 09:28:53;;;;;;;;;;;;;;;25.42;38.36;93387.94;4822131;29;8056;-65
2023/02/24 09:31:54;;;;;;;;;;;;;;;25.43;37.77;93379.16;4816201;29;7993;-65
2023/02/24 09:34:42;;;;;;;;;;;;;;;25.41;38.28;93370.66;5082124;27;1605861;-63
2023/02/24 09:37:25;;;;;;;;;;;;;;;25.49;37.97;93370.75;5104225;28;7170;-63
2023/02/24 09:40:38;;;;;;;;;;;;;;;25.45;37.63;93367.59;5103517;28;7304;-63
2023/02/24 09:43:16;;;;;;;;;;;;;;;25.51;38.35;93362.72;5119884;28;7333;-64
2023/02/24 09:46:13;;;;;;;;;;;;;;;25.51;38.17;93368.22;5104320;28;7122;-63
2023/02/24 09:48:50;;;;;;;;;;;;;;;25.48;37.49;93369.28;5110771;28;7239;-64
2023/02/24 09:51:20;;;;;;;;;;;;;;;25.48;38.36;93372.03;5095856;28;7024;-63
2023/02/24 09:54:12;;;;;;;;;;;;;;;25.46;37.82;93366.34;5112535;28;8766;-64
2023/02/24 09:57:15;;;;;;;;;;;;;;;25.46;38.29;93366.34;5130431;28;8731;-63
2023/02/24 09:59:59;;;;;;;;;;;;;;;25.47;38.19;93367.06;5092982;28;9095;-64
2023/02/24 10:03:18;;;;;;;;;;;;;;;25.48;38.38;93361.03;5103362;28;7259;-63
2023/02/24 10:05:59;;;;;;;;;;;;;;;25.46;37.84;93349.81;5091812;28;7375;-64
2023/02/24 10:08:38;;;;;;;;;;;;;;;25.46;37.51;93349.81;5100393;28;7195;-64
2023/02/24 10:11:31;;;;;;;;;;;;;;;25.48;38.24;93355.53;5091247;28;7051;-64
2023/02/24 10:14:05;;;;;;;;;;;;;;;25.49;38.51;93359.03;5100521;28;7378;-60
2023/02/24 10:16:43;;;;;;;;;;;;;;;25.48;37.60;93350.03;5080308;28;7266;-60
2023/02/24 10:19:24;;;;;;;;;;;;;;;25.48;37.83;93352.78;5086044;28;7382;-59
2023/02/24 10:22:21;;;;;;;;;;;;;;;25.51;37.77;93351.72;5098760;28;7267;-59
2023/02/24 10:25:09;;;;;;;;;;;;;;;25.51;38.13;93342.72;5102041;28;7021;-60
2023/02/24 10:28:05;;;;;;;;;;;;;;;25.50;38.35;93344.72;5095296;28;7345;-59
2023/02/24 10:31:02;;;;;;;;;;;;;;;25.48;37.94;93341.75;5086693;28;7326;-60
2023/02/24 10:33:43;;;;;;;;;;;;;;;25.48;38.11;93341.75;5077528;28;7031;-59
2023/02/24 10:36:18;;;;;;;;;;;;;;;25.50;37.56;93343.97;5101360;28;7041;-59
2023/02/24 10:38:44;;;;;;;;;;;;;;;25.51;38.37;93340.69;5084257;28;9406;-59
2023/02/24 10:41:28;;;;;;;;;;;;;;;25.50;37.56;93339.22;5088998;28;6861;-59
2023/02/24 10:43:56;;;;;;;;;;;;;;;25.50;38.30;93330.94;5088683;28;7027;-59
2023/02/24 10:46:37;;;;;;;;;;;;;;;25.50;37.80;93321.94;5065452;28;7255;-59
2023/02/24 10:49:08;;;;;;;;;;;;;;;25.52;38.37;93322.88;5078398;28;7198;-59
2023/02/24 10:51:46;;;;;;;;;;;;;;;25.53;37.87;93316.13;5072682;28;7027;-60
2023/02/24 10:57:35;;;;;;;;;;;;;;;25.55;38.08;93312.81;5066427;28;8606;-59
2023/02/24 11:00:50;;;;;;;;;;;;;;;25.54;38.44;93303.81;5055535;28;9375;-59
2023/02/24 11:03:34;;;;;;;;;;;;;;;25.56;37.87;93293.00;5043867;28;9315;-59
2023/02/24 11:08:53;;;;;;;;;;;;;;;25.56;37.53;93286.75;5050335;28;9372;-59
2023/02/24 11:11:29;;;;;;;;;;;;;;;25.56;37.82;93293.00;5040833;28;8732;-59
2023/02/24 11:20:09;;;;;;;;;;;;;;;25.58;37.90;93279.44;5065374;28;8743;-61
2023/02/24 11:22:42;;;;;;;;;;;;;;;25.54;38.19;93267.28;5033791;28;9232;-61
2023/02/24 11:25:26;;;;;;;;;;;;;;;25.58;38.18;93268.44;5043759;28;8574;-62
2023/02/24 11:28:04;;;;;;;;;;;;;;;25.60;37.59;93260.38;5026723;28;7335;-61
2023/02/24 11:30:48;;;;;;;;;;;;;;;25.61;37.60;93250.84;5036236;28;7100;-61
2023/02/24 11:34:03;;;;;;;;;;;;;;;25.61;38.42;93253.59;5037570;28;8915;-61
2023/02/24 11:36:44;;;;;;;;;;;;;;;25.62;37.58;93246.06;5032914;28;7133;-61
2023/02/24 11:39:59;;;;;;;;;;;;;;;25.61;38.37;93237.06;5032660;28;8839;-61
2023/02/24 11:43:20;;;;;;;;;;;;;;;25.63;38.37;93231.75;4974103;28;8978;-61
2023/02/24 11:45:59;;;;;;;;;;;;;;;25.64;38.45;93227.00;4963856;28;9746;-61
2023/02/24 11:48:51;;;;;;;;;;;;;;;25.64;37.96;93227.75;4973732;28;9382;-61
2023/02/24 11:51:23;;;;;;;;;;;;;;;25.64;37.53;93213.97;4962578;28;7463;-61
2023/02/24 11:53:56;;;;;;;;;;;;;;;25.64;38.28;93213.22;4970761;28;9092;-61
2023/02/24 11:56:32;;;;;;;;;;;;;;;25.66;38.35;93205.91;4953831;28;7357;-62
2023/02/24 11:59:17;;;;;;;;;;;;;;;25.67;37.50;93207.38;4948482;28;9814;-63
2023/02/24 12:01:52;;;;;;;;;;;;;;;25.68;37.51;93195.09;4968867;28;8789;-63
2023/02/24 12:04:26;;;;;;;;;;;;;;;25.66;37.93;93180.38;4969934;28;7293;-62
2023/02/24 12:07:09;;;;;;;;;;;;;;;25.70;37.93;93192.53;4970680;28;8795;-62
2023/02/24 12:09:50;;;;;;;;;;;;;;;25.71;37.65;93185.75;4954049;28;7016;-63
2023/02/24 12:12:23;;;;;;;;;;;;;;;25.70;37.98;93181.53;4978146;28;7045;-63
2023/02/24 12:14:55;;;;;;;;;;;;;;;25.70;37.55;93176.00;5007929;28;9394;-63
2023/02/24 12:17:59;;;;;;;;;;;;;;;25.73;37.81;93165.94;5012267;28;7277;-62
2023/02/24 12:20:56;;;;;;;;;;;;;;;25.75;37.91;93164.09;5084354;28;7045;-63
2023/02/24 12:23:36;;;;;;;;;;;;;;;25.76;38.02;93162.09;5055751;28;9057;-63
2023/02/24 12:26:07;;;;;;;;;;;;;;;25.77;38.42;93163.56;5091072;28;9674;-62
2023/02/24 12:29:06;;;;;;;;;;;;;;;25.77;38.46;93158.81;5076421;28;6865;-63
2023/02/24 12:31:53;;;;;;;;;;;;;;;25.79;38.41;93156.25;5076516;28;9070;-62
2023/02/24 12:34:42;;;;;;;;;;;;;;;25.82;37.36;93148.91;5061761;28;7277;-62
2023/02/24 12:37:35;;;;;;;;;;;;;;;25.79;37.97;93134.22;5071371;28;9401;-62
2023/02/24 12:40:02;;;;;;;;;;;;;;;25.81;38.01;93139.91;5072377;28;9746;-62
2023/02/24 12:43:27;;;;;;;;;;;;;;;25.81;37.84;93131.66;5056374;28;9156;-63
2023/02/24 12:46:02;;;;;;;;;;;;;;;25.81;37.61;93126.16;5079352;28;9026;-62
2023/02/24 12:48:35;;;;;;;;;;;;;;;25.83;38.47;93122.84;5074659;28;9058;-63
2023/02/24 12:51:14;;;;;;;;;;;;;;;25.85;37.89;93115.50;5060463;28;7302;-63
2023/02/24 12:54:02;;;;;;;;;;;;;;;25.86;37.60;93121.75;5052375;28;7060;-62
2023/02/24 12:56:31;;;;;;;;;;;;;;;25.85;37.96;93107.25;5063006;28;9156;-62
2023/02/24 12:59:04;;;;;;;;;;;;;;;25.87;37.75;93101.94;5054867;28;9121;-62
2023/02/24 13:01:50;;;;;;;;;;;;;;;25.91;38.45;93102.31;5078928;28;9076;-63
2023/02/24 13:05:01;;;;;;;;;;;;;;;25.94;37.73;93092.22;5065125;28;9660;-63
2023/02/24 13:08:11;;;;;;;;;;;;;;;25.95;38.51;93097.19;5088735;28;7653;-63
2023/02/24 13:10:58;;;;;;;;;;;;;;;25.95;37.91;93088.91;5056164;28;7270;-63
2023/02/24 13:14:03;;;;;;;;;;;;;;;25.97;38.09;93091.88;5067195;28;9081;-63
2023/02/24 13:16:35;;;;;;;;;;;;;;;25.98;38.00;93084.34;5087684;28;9341;-63
2023/02/24 13:19:40;;;;;;;;;;;;;;;26.00;38.00;93079.03;5081399;28;9464;-62
2023/02/24 13:22:31;;;;;;;;;;;;;;;26.01;38.61;93072.97;5077921;28;10016;-62
2023/02/24 13:25:18;;;;;;;;;;;;;;;26.04;37.63;93076.66;5073437;28;8191;-63
2023/02/24 13:28:21;;;;;;;;;;;;;;;26.05;38.04;93067.84;5066636;28;7054;-62
2023/02/24 13:30:58;;;;;;;;;;;;;;;26.07;38.04;93059.03;5070889;28;7336;-62
2023/02/24 13:33:37;;;;;;;;;;;;;;;26.06;38.12;93058.28;5061571;28;7030;-63
2023/02/24 13:36:26;;;;;;;;;;;;;;;26.11;37.55;93049.16;5071536;28;6859;-63
2023/02/24 13:39:28;;;;;;;;;;;;;;;26.12;38.31;93047.88;5070755;28;9047;-62
2023/02/24 13:42:04;;;;;;;;;;;;;;;26.13;37.88;93041.09;5064069;28;8940;-62
2023/02/24 13:44:30;;;;;;;;;;;;;;;26.17;37.78;93044.22;5072739;28;9139;-63
2023/02/24 13:47:19;;;;;;;;;;;;;;;26.23;37.60;93043.31;5070208;28;7162;-62
2023/02/24 13:50:34;;;;;;;;;;;;;;;26.25;37.38;93038.00;5069797;28;9031;-62
2023/02/24 13:53:41;;;;;;;;;;;;;;;26.28;37.40;93045.91;5064597;28;7282;-63
2023/02/24 13:56:22;;;;;;;;;;;;;;;26.29;37.80;93036.34;5047239;28;9114;-63
2023/02/24 13:59:09;;;;;;;;;;;;;;;26.30;37.40;93039.84;5081109;28;9655;-63
2023/02/24 14:02:10;;;;;;;;;;;;;;;26.35;37.32;93031.41;5080563;28;8720;-63
2023/02/24 14:04:53;;;;;;;;;;;;;;;26.36;37.64;93024.59;5040722;28;7244;-62
2023/02/24 14:07:34;;;;;;;;;;;;;;;26.35;37.97;93020.38;5033942;28;7031;-62
2023/02/24 14:10:43;;;;;;;;;;;;;;;26.40;37.83;93015.97;5040387;28;8695;-62
2023/02/24 14:13:28;;;;;;;;;;;;;;;26.43;37.64;93023.88;5033773;28;7063;-62
2023/02/24 14:16:08;;;;;;;;;;;;;;;26.47;37.77;93018.03;5035088;28;9161;-62
2023/02/24 14:18:37;;;;;;;;;;;;;;;26.49;37.47;93015.44;5045016;28;6992;-62
2023/02/24 14:21:05;;;;;;;;;;;;;;;26.50;37.32;93016.91;5033072;28;7041;-62
2023/02/24 14:23:38;;;;;;;;;;;;;;;26.50;37.56;93011.38;5047153;28;9191;-62
2023/02/24 14:26:11;;;;;;;;;;;;;;;26.58;36.93;93018.38;5031559;28;9055;-62
2023/02/24 14:28:56;;;;;;;;;;;;;;;26.55;37.40;93010.47;5045620;28;9137;-62
2023/02/24 14:31:24;;;;;;;;;;;;;;;26.55;37.58;93018.75;5027670;28;9097;-62
2023/02/24 14:34:07;;;;;;;;;;;;;;;26.58;37.16;93015.63;5033197;28;7289;-63
2023/02/24 14:36:44;;;;;;;;;;;;;;;26.57;37.22;93002.41;5051361;28;7288;-62
2023/02/24 14:39:19;;;;;;;;;;;;;;;26.58;37.13;92998.34;5031350;28;7113;-63
2023/02/24 14:42:30;;;;;;;;;;;;;;;26.63;37.10;93008.47;5059478;28;9185;-63
2023/02/24 14:45:01;;;;;;;;;;;;;;;26.64;37.96;93002.38;5080130;28;9503;-62
2023/02/24 14:47:40;;;;;;;;;;;;;;;26.64;37.16;93005.13;5079704;28;7121;-63
2023/02/24 14:50:27;;;;;;;;;;;;;;;26.67;37.54;93000.56;5076655;28;7074;-63
2023/02/24 14:53:18;;;;;;;;;;;;;;;26.66;37.30;93001.84;5095555;28;7259;-63